createdAt,value
2023-03-13T00:00:54.239Z,36.01
2023-03-13T00:01:57.066Z,36.08
2023-03-13T00:03:00.200Z,36.08
2023-03-13T00:04:04.038Z,36.09
2023-03-13T00:05:08.263Z,36.07
2023-03-13T00:06:12.233Z,36.12
2023-03-13T00:07:15.626Z,36.12
2023-03-13T00:08:18.946Z,36.14
2023-03-13T00:09:22.946Z,36.12
2023-03-13T00:10:26.735Z,36.18
2023-03-13T00:11:29.585Z,36.15
2023-03-13T00:12:32.171Z,36.17
2023-03-13T00:13:34.810Z,36.18
2023-03-13T00:14:37.830Z,36.19
2023-03-13T00:15:40.224Z,36.19
2023-03-13T00:16:42.760Z,36.23
2023-03-13T00:17:47.162Z,36.24
2023-03-13T00:18:51.222Z,36.21
2023-03-13T00:19:55.274Z,36.20
2023-03-13T00:21:01.890Z,36.24
2023-03-13T00:22:05.262Z,36.21
2023-03-13T00:23:07.981Z,36.18
2023-03-13T00:24:10.931Z,36.19
2023-03-13T00:25:14.792Z,36.15
2023-03-13T00:27:34.036Z,36.10
2023-03-13T00:28:38.273Z,36.07
2023-03-13T00:29:42.010Z,36.05
2023-03-13T00:30:44.727Z,36.05
2023-03-13T00:31:47.541Z,36.02
2023-03-13T00:32:51.729Z,36.02
2023-03-13T00:35:10.218Z,36.00
2023-03-13T00:36:18.013Z,35.98
2023-03-13T00:37:20.585Z,35.98
2023-03-13T00:38:23.600Z,35.98
2023-03-13T00:39:27.094Z,35.97
2023-03-13T00:40:30.276Z,35.97
2023-03-13T00:41:33.100Z,35.97
2023-03-13T00:42:38.028Z,35.94
2023-03-13T00:43:41.706Z,35.97
2023-03-13T00:44:46.371Z,35.95
2023-03-13T00:45:49.133Z,35.94
2023-03-13T00:46:52.176Z,35.94
2023-03-13T00:47:55.718Z,35.99
2023-03-13T00:49:00.203Z,35.98
2023-03-13T00:50:03.146Z,35.98
2023-03-13T00:51:06.456Z,36.16
2023-03-13T00:52:09.624Z,36.36
2023-03-13T00:53:11.986Z,36.38
2023-03-13T00:54:14.922Z,36.29
2023-03-13T00:55:17.591Z,36.26
2023-03-13T00:56:21.552Z,36.29
2023-03-13T00:57:24.604Z,36.32
2023-03-13T00:58:29.040Z,36.32
2023-03-13T00:59:31.586Z,36.34
2023-03-13T01:00:34.216Z,36.38
2023-03-13T01:01:37.450Z,36.39
2023-03-13T01:02:43.504Z,36.40
2023-03-13T01:03:49.290Z,36.43
2023-03-13T01:04:53.664Z,36.45
2023-03-13T01:06:00.637Z,36.43
2023-03-13T01:07:03.518Z,36.43
2023-03-13T01:08:05.980Z,36.45
2023-03-13T01:09:10.115Z,36.48
2023-03-13T01:10:13.423Z,36.53
2023-03-13T01:11:18.929Z,36.51
2023-03-13T01:12:22.369Z,36.51
2023-03-13T01:13:25.752Z,36.53
2023-03-13T01:14:28.417Z,36.55
2023-03-13T01:15:35.719Z,36.56
2023-03-13T01:16:39.450Z,36.56
2023-03-13T01:17:44.263Z,36.59
2023-03-13T01:18:53.262Z,36.58
2023-03-13T01:19:58.965Z,36.58
2023-03-13T01:21:02.703Z,36.58
2023-03-13T01:22:05.366Z,36.59
2023-03-13T01:23:09.510Z,36.66
2023-03-13T01:24:12.199Z,36.65
2023-03-13T01:25:15.759Z,36.70
2023-03-13T01:26:20.745Z,36.71
2023-03-13T01:27:23.569Z,36.71
2023-03-13T01:28:26.359Z,36.76
2023-03-13T01:29:30.369Z,36.76
2023-03-13T01:30:33.295Z,36.76
2023-03-13T01:31:36.696Z,36.77
2023-03-13T01:32:43.081Z,36.83
2023-03-13T01:33:46.970Z,36.79
2023-03-13T01:34:51.363Z,36.83
2023-03-13T01:35:57.664Z,36.99
2023-03-13T01:37:00.326Z,36.90
2023-03-13T01:38:02.887Z,36.84
2023-03-13T01:39:05.682Z,36.84
2023-03-13T01:40:10.235Z,36.88
2023-03-13T01:41:12.842Z,36.87
2023-03-13T01:42:15.407Z,36.84
2023-03-13T01:43:26.434Z,36.84
2023-03-13T01:44:25.477Z,36.94
2023-03-13T01:45:52.917Z,36.89
2023-03-13T01:46:55.700Z,36.93
2023-03-13T01:48:00.930Z,36.91
2023-03-13T01:50:26.177Z,36.91
2023-03-13T01:51:51.607Z,36.98
2023-03-13T01:52:54.362Z,36.97
2023-03-13T01:54:04.682Z,37.00
2023-03-13T01:55:10.054Z,36.99
2023-03-13T01:56:17.154Z,37.01
2023-03-13T01:58:40.247Z,36.99
2023-03-13T01:59:48.029Z,37.01
2023-03-13T02:00:50.710Z,37.03
2023-03-13T02:01:54.540Z,37.05
2023-03-13T02:02:59.248Z,37.11
2023-03-13T02:04:01.883Z,37.16
2023-03-13T02:05:05.927Z,37.21
2023-03-13T02:06:10.032Z,37.15
2023-03-13T02:07:16.454Z,37.11
2023-03-13T02:08:21.577Z,37.11
2023-03-13T02:09:26.329Z,37.10
2023-03-13T02:10:30.033Z,37.10
2023-03-13T02:11:41.667Z,37.05
2023-03-13T02:12:44.453Z,37.07
2023-03-13T02:13:47.792Z,37.08
2023-03-13T02:14:50.361Z,37.08
2023-03-13T02:15:53.458Z,37.07
2023-03-13T02:16:56.506Z,37.06
2023-03-13T02:18:00.240Z,37.07
2023-03-13T02:19:05.119Z,37.11
2023-03-13T02:20:11.490Z,37.10
2023-03-13T02:21:17.967Z,37.16
2023-03-13T02:22:58.465Z,37.17
2023-03-13T02:24:19.835Z,37.17
2023-03-13T02:26:46.879Z,37.14
2023-03-13T02:27:58.025Z,37.23
2023-03-13T02:29:00.528Z,37.21
2023-03-13T02:30:04.798Z,37.42
2023-03-13T02:31:07.844Z,37.42
2023-03-13T02:32:10.616Z,37.30
2023-03-13T02:33:13.727Z,37.34
2023-03-13T02:34:19.425Z,37.29
2023-03-13T02:35:22.135Z,37.31
2023-03-13T02:36:25.302Z,37.28
2023-03-13T02:37:28.123Z,37.32
2023-03-13T02:38:32.898Z,37.31
2023-03-13T02:39:35.509Z,37.30
2023-03-13T02:40:41.479Z,37.29
2023-03-13T02:41:45.003Z,37.29
2023-03-13T02:42:47.500Z,37.29
2023-03-13T02:43:50.786Z,37.28
2023-03-13T02:44:53.417Z,37.28
2023-03-13T02:46:08.234Z,37.29
2023-03-13T02:47:15.756Z,37.31
2023-03-13T02:48:21.263Z,37.31
2023-03-13T02:49:30.234Z,37.31
2023-03-13T02:50:33.815Z,37.34
2023-03-13T02:51:39.602Z,37.30
2023-03-13T02:52:45.898Z,37.33
2023-03-13T02:53:49.366Z,37.31
2023-03-13T02:54:54.940Z,37.30
2023-03-13T02:55:57.440Z,37.30
2023-03-13T02:57:02.113Z,37.31
2023-03-13T02:58:04.700Z,37.34
2023-03-13T02:59:09.098Z,37.32
2023-03-13T03:00:19.205Z,37.33
2023-03-13T03:01:22.025Z,37.35
2023-03-13T03:02:24.692Z,37.32
2023-03-13T03:03:29.375Z,37.36
2023-03-13T03:04:34.439Z,37.38
2023-03-13T03:05:37.060Z,37.38
2023-03-13T03:06:39.651Z,37.36
2023-03-13T03:07:43.375Z,37.43
2023-03-13T03:08:46.895Z,37.43
2023-03-13T03:09:50.931Z,37.40
2023-03-13T03:10:55.430Z,37.34
2023-03-13T03:11:58.344Z,37.35
2023-03-13T03:13:03.151Z,37.35
2023-03-13T03:14:06.372Z,37.40
2023-03-13T03:15:11.607Z,37.44
2023-03-13T03:16:20.090Z,37.46
2023-03-13T03:17:22.860Z,37.42
2023-03-13T03:18:25.423Z,37.43
2023-03-13T03:19:28.089Z,37.44
2023-03-13T03:20:31.029Z,37.45
2023-03-13T03:21:33.932Z,37.47
2023-03-13T03:22:38.094Z,37.54
2023-03-13T03:23:40.826Z,37.56
2023-03-13T03:24:44.833Z,37.64
2023-03-13T03:25:48.086Z,37.65
2023-03-13T03:26:51.243Z,37.66
2023-03-13T03:28:01.239Z,37.71
2023-03-13T03:29:04.326Z,37.73
2023-03-13T03:30:08.035Z,37.77
2023-03-13T03:31:12.689Z,37.86
2023-03-13T03:32:15.861Z,37.89
2023-03-13T03:33:18.673Z,37.93
2023-03-13T03:34:21.243Z,37.99
2023-03-13T03:35:23.892Z,38.07
2023-03-13T03:36:26.955Z,38.11
2023-03-13T03:37:29.556Z,38.18
2023-03-13T03:38:33.082Z,38.31
2023-03-13T03:39:36.138Z,38.37
2023-03-13T03:40:39.075Z,38.38
2023-03-13T03:41:42.480Z,38.38
2023-03-13T03:42:45.699Z,38.36
2023-03-13T03:43:49.289Z,38.33
2023-03-13T03:44:53.701Z,38.36
2023-03-13T03:45:56.472Z,38.38
2023-03-13T03:46:59.175Z,38.41
2023-03-13T03:48:03.916Z,38.43
2023-03-13T03:49:07.584Z,38.48
2023-03-13T03:50:11.211Z,38.47
2023-03-13T03:51:15.590Z,38.48
2023-03-13T03:52:19.487Z,38.47
2023-03-13T03:53:22.427Z,38.36
2023-03-13T03:54:26.059Z,38.25
2023-03-13T03:55:28.703Z,38.20
2023-03-13T03:56:31.534Z,38.14
2023-03-13T03:57:34.925Z,37.99
2023-03-13T03:58:38.473Z,37.93
2023-03-13T03:59:54.687Z,37.83
2023-03-13T04:00:58.208Z,37.71
2023-03-13T04:02:01.525Z,37.63
2023-03-13T04:03:05.319Z,37.52
2023-03-13T04:04:07.957Z,37.47
2023-03-13T04:05:10.832Z,37.44
2023-03-13T04:06:15.294Z,37.41
2023-03-13T04:07:18.476Z,37.35
2023-03-13T04:08:22.026Z,37.42
2023-03-13T04:09:24.669Z,37.42
2023-03-13T04:10:28.230Z,37.44
2023-03-13T04:11:31.059Z,37.47
2023-03-13T04:12:34.092Z,37.49
2023-03-13T04:13:37.984Z,37.53
2023-03-13T04:14:41.028Z,37.53
2023-03-13T04:15:45.635Z,37.57
2023-03-13T04:16:48.550Z,37.57
2023-03-13T04:17:51.401Z,37.62
2023-03-13T04:18:55.932Z,37.69
2023-03-13T04:20:00.671Z,37.76
2023-03-13T04:21:05.823Z,37.73
2023-03-13T04:22:10.386Z,37.75
2023-03-13T04:23:14.848Z,37.85
2023-03-13T04:24:17.607Z,37.86
2023-03-13T04:25:21.036Z,37.87
2023-03-13T04:26:26.831Z,37.92
2023-03-13T04:28:35.400Z,38.05
2023-03-13T04:31:00.854Z,38.18
2023-03-13T04:32:21.827Z,38.18
2023-03-13T04:34:45.664Z,38.26
2023-03-13T04:35:50.597Z,38.32
2023-03-13T04:36:54.961Z,38.37
2023-03-13T04:39:12.477Z,38.40
2023-03-13T04:40:29.371Z,38.46
2023-03-13T04:41:37.085Z,38.43
2023-03-13T04:42:58.197Z,38.47
2023-03-13T04:45:29.914Z,38.49
2023-03-13T04:46:37.052Z,38.52
2023-03-13T04:47:42.496Z,38.62
2023-03-13T04:49:07.089Z,38.62
2023-03-13T04:51:24.839Z,38.61
2023-03-13T04:52:28.995Z,38.69
2023-03-13T04:53:46.744Z,38.72
2023-03-13T04:54:55.054Z,38.74
2023-03-13T04:56:41.650Z,38.79
2023-03-13T04:57:33.778Z,38.79
2023-03-13T04:58:50.522Z,38.82
2023-03-13T05:01:06.778Z,38.91
2023-03-13T05:02:30.812Z,38.96
2023-03-13T05:03:37.728Z,38.97
2023-03-13T05:05:57.835Z,39.06
2023-03-13T05:08:23.643Z,39.15
2023-03-13T05:09:28.074Z,39.17
2023-03-13T05:12:04.912Z,39.07
2023-03-13T05:13:09.856Z,38.98
2023-03-13T05:14:30.938Z,38.82
2023-03-13T05:15:44.567Z,38.55
2023-03-13T05:17:05.686Z,38.38
2023-03-13T05:18:16.087Z,38.16
2023-03-13T05:19:23.273Z,38.00
2023-03-13T05:20:36.936Z,37.89
2023-03-13T05:21:48.389Z,37.77
2023-03-13T05:23:09.736Z,37.64
2023-03-13T05:24:14.280Z,37.49
2023-03-13T05:26:40.401Z,37.26
2023-03-13T05:28:05.611Z,37.18
2023-03-13T05:29:23.526Z,37.09
2023-03-13T05:30:45.121Z,36.98
2023-03-13T05:31:49.498Z,36.91
2023-03-13T05:33:00.341Z,36.86
2023-03-13T05:34:23.324Z,36.78
2023-03-13T05:35:28.067Z,36.75
2023-03-13T05:37:45.621Z,36.72
2023-03-13T05:38:50.454Z,36.67
2023-03-13T05:39:55.434Z,36.81
2023-03-13T05:41:09.133Z,36.84
2023-03-13T05:42:13.523Z,36.90
2023-03-13T05:43:30.097Z,37.00
2023-03-13T05:44:43.884Z,37.04
2023-03-13T05:46:06.493Z,37.17
2023-03-13T05:47:20.688Z,37.19
2023-03-13T05:48:28.290Z,37.23
2023-03-13T05:49:39.987Z,37.33
2023-03-13T05:50:44.659Z,37.39
2023-03-13T05:51:57.855Z,37.46
2023-03-13T05:53:05.367Z,37.54
2023-03-13T05:54:10.808Z,37.71
2023-03-13T05:56:42.313Z,37.92
2023-03-13T05:57:53.805Z,38.03
2023-03-13T05:58:58.634Z,38.06
2023-03-13T06:00:20.195Z,38.19
2023-03-13T06:01:24.663Z,38.22
2023-03-13T06:02:31.034Z,38.29
2023-03-13T06:03:34.518Z,38.41
2023-03-13T06:04:37.848Z,38.46
2023-03-13T06:05:41.241Z,38.48
2023-03-13T06:06:46.602Z,38.50
2023-03-13T06:07:51.711Z,38.45
2023-03-13T06:08:54.323Z,38.46
2023-03-13T06:09:59.250Z,38.43
2023-03-13T06:11:03.077Z,38.39
2023-03-13T06:12:07.241Z,38.32
2023-03-13T06:13:19.501Z,38.22
2023-03-13T06:14:15.451Z,38.12
2023-03-13T06:15:23.200Z,38.06
2023-03-13T06:16:27.720Z,37.95
2023-03-13T06:17:33.122Z,37.94
2023-03-13T06:18:36.745Z,37.89
2023-03-13T06:19:39.444Z,37.93
2023-03-13T06:20:42.692Z,37.91
2023-03-13T06:21:45.394Z,37.90
2023-03-13T06:22:48.850Z,37.88
2023-03-13T06:23:51.626Z,37.91
2023-03-13T06:24:55.039Z,37.93
2023-03-13T06:25:57.347Z,37.96
2023-03-13T06:27:00.169Z,38.01
2023-03-13T06:28:04.046Z,38.01
2023-03-13T06:29:06.597Z,38.02
2023-03-13T06:30:11.199Z,38.04
2023-03-13T06:31:13.782Z,37.98
2023-03-13T06:32:18.276Z,37.98
2023-03-13T06:33:21.837Z,37.93
2023-03-13T06:34:25.863Z,37.85
2023-03-13T06:35:28.500Z,37.80
2023-03-13T06:36:31.153Z,37.75
2023-03-13T06:37:34.095Z,38.04
2023-03-13T06:38:37.322Z,38.04
2023-03-13T06:39:40.677Z,37.57
2023-03-13T06:40:43.298Z,37.55
2023-03-13T06:41:47.263Z,37.67
2023-03-13T06:42:49.925Z,37.67
2023-03-13T06:43:53.189Z,37.37
2023-03-13T06:44:55.751Z,37.30
2023-03-13T06:47:35.507Z,37.26
2023-03-13T06:48:38.352Z,37.16
2023-03-13T06:49:42.006Z,37.21
2023-03-13T06:50:44.716Z,37.18
2023-03-13T06:51:47.515Z,37.17
2023-03-13T06:52:52.626Z,37.17
2023-03-13T06:53:56.333Z,36.99
2023-03-13T06:54:58.746Z,36.96
2023-03-13T06:56:01.767Z,36.91
2023-03-13T06:57:04.269Z,36.87
2023-03-13T06:58:06.774Z,36.82
2023-03-13T06:59:09.331Z,36.79
2023-03-13T07:00:13.004Z,36.76
2023-03-13T07:01:17.651Z,36.69
2023-03-13T07:02:21.331Z,36.81
2023-03-13T07:03:24.749Z,36.71
2023-03-13T07:04:29.102Z,36.60
2023-03-13T07:05:32.334Z,36.58
2023-03-13T07:06:34.868Z,36.54
2023-03-13T07:07:37.615Z,36.56
2023-03-13T07:08:40.707Z,36.53
2023-03-13T07:09:43.818Z,36.45
2023-03-13T07:10:50.313Z,36.46
2023-03-13T07:11:52.740Z,36.42
2023-03-13T07:12:55.515Z,36.42
2023-03-13T07:14:15.285Z,36.35
2023-03-13T07:15:07.986Z,36.29
2023-03-13T07:16:13.411Z,36.19
2023-03-13T07:17:16.751Z,36.20
2023-03-13T07:18:20.174Z,36.19
2023-03-13T07:19:23.157Z,36.12
2023-03-13T07:20:26.987Z,36.04
2023-03-13T07:21:29.639Z,35.98
2023-03-13T07:22:32.851Z,35.95
2023-03-13T07:23:35.388Z,35.91
2023-03-13T07:24:38.380Z,35.85
2023-03-13T07:25:40.934Z,35.82
2023-03-13T07:26:57.708Z,35.74
2023-03-13T07:27:51.683Z,35.70
2023-03-13T07:28:55.167Z,35.65
2023-03-13T07:29:58.537Z,35.56
2023-03-13T07:31:06.322Z,35.56
2023-03-13T07:32:10.342Z,35.57
2023-03-13T07:33:16.690Z,35.64
2023-03-13T07:34:20.293Z,35.67
2023-03-13T07:35:23.000Z,35.62
2023-03-13T07:36:25.975Z,35.60
2023-03-13T07:37:28.620Z,35.58
2023-03-13T07:38:31.202Z,35.50
2023-03-13T07:39:35.092Z,35.48
2023-03-13T07:40:38.760Z,35.48
2023-03-13T07:41:42.034Z,35.43
2023-03-13T07:42:45.181Z,35.40
2023-03-13T07:43:47.837Z,35.34
2023-03-13T07:44:50.351Z,35.30
2023-03-13T07:45:57.686Z,35.31
2023-03-13T07:47:00.682Z,35.24
2023-03-13T07:48:03.556Z,35.25
2023-03-13T07:49:06.923Z,35.33
2023-03-13T07:50:12.660Z,35.25
2023-03-13T07:52:30.024Z,35.05
2023-03-13T07:53:32.489Z,34.97
2023-03-13T07:54:36.077Z,34.92
2023-03-13T07:55:39.360Z,34.93
2023-03-13T07:56:43.162Z,34.85
2023-03-13T07:57:45.877Z,34.76
2023-03-13T07:58:48.478Z,34.70
2023-03-13T07:59:50.964Z,34.67
2023-03-13T08:00:53.412Z,34.66
2023-03-13T08:01:57.315Z,34.66
2023-03-13T08:03:01.297Z,34.59
2023-03-13T08:04:05.444Z,34.61
2023-03-13T08:05:10.727Z,34.55
2023-03-13T08:06:16.307Z,34.59
2023-03-13T08:07:20.662Z,34.58
2023-03-13T08:08:23.098Z,34.46
2023-03-13T08:09:25.525Z,34.42
2023-03-13T08:10:28.030Z,34.47
2023-03-13T08:11:30.748Z,34.43
2023-03-13T08:12:33.926Z,34.43
2023-03-13T08:13:38.348Z,34.38
2023-03-13T08:14:41.100Z,34.38
2023-03-13T08:15:44.315Z,34.38
2023-03-13T08:16:47.830Z,34.33
2023-03-13T08:17:51.567Z,34.27
2023-03-13T08:18:55.606Z,34.24
2023-03-13T08:19:59.178Z,34.17
2023-03-13T08:21:04.505Z,34.16
2023-03-13T08:22:07.456Z,34.13
2023-03-13T08:23:10.766Z,34.11
2023-03-13T08:24:13.654Z,34.12
2023-03-13T08:25:16.644Z,34.11
2023-03-13T08:26:21.772Z,34.10
2023-03-13T08:27:24.581Z,34.09
2023-03-13T08:28:26.988Z,34.06
2023-03-13T08:29:30.385Z,34.01
2023-03-13T08:30:33.062Z,34.09
2023-03-13T08:31:39.555Z,34.09
2023-03-13T08:32:43.137Z,34.21
2023-03-13T08:33:46.231Z,34.36
2023-03-13T08:34:49.105Z,34.41
2023-03-13T08:35:51.737Z,34.49
2023-03-13T08:36:54.479Z,34.51
2023-03-13T08:37:57.488Z,34.51
2023-03-13T08:39:02.700Z,34.52
2023-03-13T08:40:09.866Z,34.53
2023-03-13T08:41:19.857Z,34.55
2023-03-13T08:42:23.199Z,34.57
2023-03-13T08:43:26.275Z,34.59
2023-03-13T08:44:29.218Z,34.64
2023-03-13T08:45:33.064Z,34.69
2023-03-13T08:46:35.942Z,34.69
2023-03-13T08:47:38.605Z,34.76
2023-03-13T08:48:42.144Z,34.82
2023-03-13T08:49:44.699Z,34.81
2023-03-13T08:50:48.322Z,34.85
2023-03-13T08:51:52.134Z,34.95
2023-03-13T08:52:54.627Z,34.96
2023-03-13T08:53:57.690Z,35.03
2023-03-13T08:55:00.948Z,35.02
2023-03-13T08:56:04.544Z,34.96
2023-03-13T08:57:07.913Z,34.90
2023-03-13T08:58:10.636Z,34.91
2023-03-13T08:59:15.106Z,34.93
2023-03-13T09:00:19.212Z,34.89
2023-03-13T09:01:23.510Z,34.83
2023-03-13T09:02:27.192Z,34.78
2023-03-13T09:03:31.207Z,34.78
2023-03-13T09:04:34.949Z,34.75
2023-03-13T09:05:54.594Z,34.73
2023-03-13T09:06:43.233Z,34.70
2023-03-13T09:07:45.831Z,34.68
2023-03-13T09:08:49.390Z,34.64
2023-03-13T09:09:53.204Z,34.65
2023-03-13T09:11:00.474Z,34.60
2023-03-13T09:12:05.392Z,34.54
2023-03-13T09:13:08.332Z,34.44
2023-03-13T09:14:11.106Z,34.33
2023-03-13T09:15:14.428Z,34.28
2023-03-13T09:16:19.252Z,34.29
2023-03-13T09:17:22.180Z,34.26
2023-03-13T09:18:26.814Z,34.21
2023-03-13T09:19:29.809Z,34.18
2023-03-13T09:20:32.747Z,34.12
2023-03-13T09:21:37.000Z,34.10
2023-03-13T09:22:40.469Z,34.06
2023-03-13T09:23:44.196Z,34.04
2023-03-13T09:24:46.813Z,33.96
2023-03-13T09:25:52.365Z,33.96
2023-03-13T09:27:01.266Z,33.99
2023-03-13T09:28:00.200Z,34.12
2023-03-13T09:29:02.594Z,34.57
2023-03-13T09:30:06.530Z,35.13
2023-03-13T09:32:25.339Z,34.82
2023-03-13T09:33:28.280Z,35.41
2023-03-13T09:34:31.532Z,35.16
2023-03-13T09:35:35.327Z,35.59
2023-03-13T09:36:38.244Z,35.54
2023-03-13T09:37:40.952Z,33.64
2023-03-13T09:38:44.048Z,35.44
2023-03-13T09:39:48.891Z,31.11
2023-03-13T09:41:05.585Z,34.92
2023-03-13T09:43:46.422Z,34.05
2023-03-13T09:46:37.617Z,33.83
2023-03-13T09:47:44.149Z,30.03
2023-03-13T09:48:48.934Z,30.64
2023-03-13T09:49:57.420Z,30.18
2023-03-13T09:52:27.157Z,28.18
2023-03-13T09:53:42.842Z,27.54
2023-03-13T09:54:51.504Z,29.94
2023-03-13T09:55:54.131Z,30.60
2023-03-13T09:57:16.792Z,31.14
2023-03-13T09:58:25.263Z,31.26
2023-03-13T09:59:31.265Z,31.21
2023-03-13T10:00:43.455Z,30.38
2023-03-13T10:01:48.231Z,31.28
2023-03-13T10:03:23.326Z,31.19
2023-03-13T10:04:33.074Z,31.50
2023-03-13T10:05:36.022Z,31.35
2023-03-13T10:06:41.258Z,31.13
2023-03-13T10:07:43.901Z,31.42
2023-03-13T10:08:47.223Z,30.42
2023-03-13T10:09:49.716Z,31.13
2023-03-13T10:11:23.197Z,30.32
2023-03-13T10:12:29.914Z,31.16
2023-03-13T10:13:39.272Z,30.87
2023-03-13T10:14:45.274Z,30.99
2023-03-13T10:15:56.749Z,30.97
2023-03-13T10:17:12.156Z,30.74
2023-03-13T10:18:24.526Z,30.62
2023-03-13T10:19:34.458Z,30.69
2023-03-13T10:20:37.932Z,31.26
2023-03-13T10:21:40.557Z,30.45
2023-03-13T10:22:45.232Z,30.33
2023-03-13T10:23:57.361Z,30.54
2023-03-13T10:26:28.308Z,30.22
2023-03-13T10:27:32.304Z,30.82
2023-03-13T10:28:35.757Z,29.85
2023-03-13T10:29:41.534Z,30.83
2023-03-13T10:32:00.604Z,31.08
2023-03-13T10:33:13.277Z,30.94
2023-03-13T10:34:16.134Z,29.97
2023-03-13T10:35:27.582Z,30.88
2023-03-13T10:36:30.605Z,30.29
2023-03-13T10:37:42.694Z,30.11
2023-03-13T10:38:51.077Z,30.25
2023-03-13T10:39:54.722Z,30.76
2023-03-13T10:40:58.596Z,30.77
2023-03-13T10:43:36.295Z,33.37
2023-03-13T10:44:39.210Z,33.72
2023-03-13T10:45:41.718Z,33.97
2023-03-13T10:46:47.658Z,34.26
2023-03-13T10:47:55.671Z,34.43
2023-03-13T10:49:02.261Z,34.54
2023-03-13T10:50:05.736Z,34.61
2023-03-13T10:51:12.197Z,34.70
2023-03-13T10:52:30.951Z,34.75
2023-03-13T10:53:34.858Z,34.80
2023-03-13T10:54:39.307Z,34.85
2023-03-13T10:55:43.670Z,34.82
2023-03-13T10:56:46.747Z,34.95
2023-03-13T10:57:55.963Z,34.97
2023-03-13T10:59:00.847Z,34.92
2023-03-13T11:00:08.918Z,34.90
2023-03-13T11:01:22.486Z,34.92
2023-03-13T11:02:31.776Z,34.89
2023-03-13T11:03:35.784Z,34.80
2023-03-13T11:04:38.275Z,34.84
2023-03-13T11:07:08.258Z,34.91
2023-03-13T11:09:27.426Z,34.97
2023-03-13T11:10:30.626Z,35.03
2023-03-13T11:11:47.312Z,35.04
2023-03-13T11:12:55.241Z,35.03
2023-03-13T11:14:09.695Z,34.99
2023-03-13T11:15:17.372Z,34.97
2023-03-13T11:17:38.472Z,34.87
2023-03-13T11:19:01.212Z,34.89
2023-03-13T11:20:07.461Z,34.86
2023-03-13T11:21:18.454Z,34.79
2023-03-13T11:22:31.964Z,34.74
2023-03-13T11:23:39.884Z,34.72
2023-03-13T11:25:17.764Z,34.68
2023-03-13T11:26:37.629Z,34.71
2023-03-13T11:28:06.368Z,34.65
2023-03-13T11:29:49.525Z,34.70
2023-03-13T11:31:14.556Z,34.73
2023-03-13T11:33:50.806Z,34.83
2023-03-13T11:36:28.274Z,34.88
2023-03-13T11:37:32.460Z,34.98
2023-03-13T11:38:40.631Z,34.93
2023-03-13T11:40:11.862Z,34.80
2023-03-13T11:43:23.567Z,34.40
2023-03-13T11:45:58.126Z,34.30
2023-03-13T11:47:25.638Z,34.23
2023-03-13T11:48:53.000Z,34.20
2023-03-13T11:50:20.885Z,34.24
2023-03-13T11:51:59.354Z,34.31
2023-03-13T11:54:56.775Z,34.58
2023-03-13T11:56:13.767Z,34.72
2023-03-13T11:57:27.452Z,34.82
2023-03-13T12:00:05.908Z,34.99
2023-03-13T12:01:14.190Z,34.92
2023-03-13T12:03:44.395Z,34.76
2023-03-13T12:06:15.855Z,34.65
2023-03-13T12:07:25.926Z,34.62
2023-03-13T12:08:32.031Z,34.58
2023-03-13T12:09:41.736Z,34.47
2023-03-13T12:12:49.759Z,34.33
2023-03-13T12:15:19.347Z,34.55
2023-03-13T12:16:25.320Z,34.68
2023-03-13T12:17:38.936Z,34.80
2023-03-13T12:18:43.146Z,34.90
2023-03-13T12:19:49.738Z,35.05
2023-03-13T12:21:04.526Z,35.17
2023-03-13T12:22:16.619Z,35.15
2023-03-13T12:23:23.916Z,35.09
2023-03-13T12:26:00.859Z,35.07
2023-03-13T12:27:18.972Z,35.08
2023-03-13T12:28:33.257Z,35.10
2023-03-13T12:30:09.460Z,35.11
2023-03-13T12:31:28.059Z,35.16
2023-03-13T12:32:54.269Z,35.22
2023-03-13T12:34:10.398Z,35.25
2023-03-13T12:35:19.789Z,35.24
2023-03-13T12:36:27.049Z,35.23
2023-03-13T12:39:23.685Z,35.28
2023-03-13T12:40:38.812Z,35.30
2023-03-13T12:41:46.999Z,35.29
2023-03-13T12:42:53.453Z,35.33
2023-03-13T12:44:08.455Z,35.41
2023-03-13T12:45:02.636Z,35.45
2023-03-13T12:46:34.843Z,35.48
2023-03-13T12:49:28.959Z,35.42
2023-03-13T12:51:03.001Z,35.44
2023-03-13T12:52:30.532Z,35.47
2023-03-13T12:53:55.218Z,35.40
2023-03-13T12:55:30.875Z,35.40
2023-03-13T12:56:47.564Z,35.37
2023-03-13T12:58:08.420Z,35.40
2023-03-13T12:59:27.176Z,35.42
2023-03-13T13:00:31.789Z,35.43
2023-03-13T13:01:40.110Z,35.45
2023-03-13T13:02:42.805Z,35.49
2023-03-13T13:03:51.214Z,35.49
2023-03-13T13:04:55.222Z,33.19
2023-03-13T13:06:10.054Z,31.47
2023-03-13T13:07:29.127Z,34.58
2023-03-13T13:10:10.446Z,32.85
2023-03-13T13:11:38.173Z,32.15
2023-03-13T13:12:42.294Z,31.87
2023-03-13T13:13:46.017Z,30.64
2023-03-13T13:14:52.903Z,30.59
2023-03-13T13:16:09.951Z,31.41
2023-03-13T13:17:30.402Z,31.03
2023-03-13T13:18:33.739Z,31.36
2023-03-13T13:19:44.182Z,31.29
2023-03-13T13:22:37.017Z,31.95
2023-03-13T13:23:43.417Z,32.06
2023-03-13T13:24:53.281Z,31.49
2023-03-13T13:25:56.022Z,30.88
2023-03-13T13:26:59.143Z,31.21
2023-03-13T13:29:39.291Z,30.98
2023-03-13T13:30:42.773Z,31.83
2023-03-13T13:31:53.942Z,31.74
2023-03-13T13:32:59.417Z,31.83
2023-03-13T13:34:02.513Z,31.53
2023-03-13T13:35:25.108Z,31.83
2023-03-13T13:36:28.949Z,32.17
2023-03-13T13:37:31.702Z,31.81
2023-03-13T13:39:53.119Z,31.57
2023-03-13T13:41:11.326Z,32.06
2023-03-13T13:42:34.960Z,31.79
2023-03-13T13:43:42.952Z,32.26
2023-03-13T13:44:59.588Z,31.63
2023-03-13T13:47:24.109Z,32.48
2023-03-13T13:48:33.874Z,32.46
2023-03-13T13:49:37.371Z,32.50
2023-03-13T13:50:40.158Z,32.71
2023-03-13T13:51:44.862Z,32.91
2023-03-13T13:52:48.413Z,33.09
2023-03-13T13:53:56.060Z,32.99
2023-03-13T13:54:59.379Z,33.26
2023-03-13T13:56:04.853Z,33.21
2023-03-13T13:57:15.369Z,33.21
2023-03-13T13:58:23.745Z,33.46
2023-03-13T14:00:53.406Z,32.83
2023-03-13T14:02:10.261Z,33.06
2023-03-13T14:03:18.848Z,32.78
2023-03-13T14:04:37.516Z,32.88
2023-03-13T14:05:41.880Z,33.11
2023-03-13T14:06:47.206Z,33.30
2023-03-13T14:08:12.957Z,33.45
2023-03-13T14:09:31.694Z,33.49
2023-03-13T14:10:40.534Z,33.65
2023-03-13T14:11:43.635Z,32.62
2023-03-13T14:12:51.459Z,32.75
2023-03-13T14:14:20.236Z,33.33
2023-03-13T14:15:30.455Z,33.27
2023-03-13T14:16:34.234Z,33.33
2023-03-13T14:18:57.992Z,33.28
2023-03-13T14:20:01.429Z,33.40
2023-03-13T14:22:21.365Z,33.09
2023-03-13T14:23:37.690Z,33.43
2023-03-13T14:24:41.433Z,32.99
2023-03-13T14:25:49.513Z,33.04
2023-03-13T14:26:52.689Z,33.25
2023-03-13T14:27:56.453Z,31.56
2023-03-13T14:30:19.719Z,32.08
2023-03-13T14:31:28.779Z,31.60
2023-03-13T14:32:31.562Z,31.68
2023-03-13T14:33:34.923Z,31.89
2023-03-13T14:34:40.872Z,32.54
2023-03-13T14:35:45.874Z,32.18
2023-03-13T14:36:57.093Z,32.56
2023-03-13T14:38:03.321Z,31.93
2023-03-13T14:39:06.322Z,32.55
2023-03-13T14:41:39.406Z,31.52
2023-03-13T14:42:45.541Z,33.00
2023-03-13T14:43:48.339Z,33.71
2023-03-13T14:44:52.683Z,34.20
2023-03-13T14:45:55.201Z,34.45
2023-03-13T14:46:58.760Z,34.62
2023-03-13T14:49:18.148Z,33.70
2023-03-13T14:50:23.575Z,33.96
2023-03-13T14:51:26.547Z,33.10
2023-03-13T14:52:30.139Z,33.40
2023-03-13T14:53:34.206Z,32.45
2023-03-13T14:54:41.602Z,32.08
2023-03-13T14:55:44.418Z,32.50
2023-03-13T14:56:47.362Z,32.43
2023-03-13T14:58:19.300Z,33.37
2023-03-13T14:59:28.188Z,32.66
2023-03-13T15:00:42.220Z,32.30
2023-03-13T15:01:46.145Z,32.14
2023-03-13T15:02:48.836Z,32.60
2023-03-13T15:03:52.887Z,32.82
2023-03-13T15:06:20.650Z,34.01
2023-03-13T15:07:24.268Z,32.63
2023-03-13T15:08:26.660Z,32.20
2023-03-13T15:09:30.265Z,30.68
2023-03-13T15:10:40.198Z,30.68
2023-03-13T15:12:57.610Z,30.93
2023-03-13T15:14:01.493Z,30.32
2023-03-13T15:15:06.114Z,31.10
2023-03-13T15:17:29.638Z,31.05
2023-03-13T15:18:33.829Z,31.68
2023-03-13T15:19:36.255Z,31.15
2023-03-13T15:20:39.073Z,31.42
2023-03-13T15:21:42.590Z,33.77
2023-03-13T15:22:45.946Z,32.76
2023-03-13T15:25:09.122Z,31.63
2023-03-13T15:26:11.786Z,33.70
2023-03-13T15:27:17.611Z,31.76
2023-03-13T15:28:21.921Z,31.91
2023-03-13T15:29:26.637Z,33.60
2023-03-13T15:30:30.174Z,30.62
2023-03-13T15:31:32.885Z,30.00
2023-03-13T15:32:37.031Z,31.19
2023-03-13T15:33:40.002Z,30.50
2023-03-13T15:34:42.629Z,33.51
2023-03-13T15:35:46.508Z,33.62
2023-03-13T15:36:51.155Z,32.23
2023-03-13T15:37:54.692Z,33.32
2023-03-13T15:38:57.827Z,31.47